sensor_id;sensor_type;location;lat;lon;timestamp;P1;durP1;ratioP1;P2;durP2;ratioP2
17441;SDS011;8838;50.144;8.176;2022-10-16T00:00:34;16.15;;;7.00;;
17441;SDS011;8838;50.144;8.176;2022-10-16T00:03:02;7.43;;;4.85;;
17441;SDS011;8838;50.144;8.176;2022-10-16T00:05:29;5.75;;;3.85;;
17441;SDS011;8838;50.144;8.176;2022-10-16T00:07:57;10.68;;;4.45;;
17441;SDS011;8838;50.144;8.176;2022-10-16T00:10:25;6.30;;;3.28;;
17441;SDS011;8838;50.144;8.176;2022-10-16T00:12:52;5.82;;;3.15;;
17441;SDS011;8838;50.144;8.176;2022-10-16T00:15:19;4.97;;;2.80;;
17441;SDS011;8838;50.144;8.176;2022-10-16T00:17:45;9.70;;;2.95;;
17441;SDS011;8838;50.144;8.176;2022-10-16T00:20:12;4.32;;;3.40;;
17441;SDS011;8838;50.144;8.176;2022-10-16T00:22:39;5.22;;;3.40;;
17441;SDS011;8838;50.144;8.176;2022-10-16T00:25:06;6.25;;;4.03;;
17441;SDS011;8838;50.144;8.176;2022-10-16T00:27:36;10.23;;;3.80;;
17441;SDS011;8838;50.144;8.176;2022-10-16T00:30:03;7.38;;;3.42;;
17441;SDS011;8838;50.144;8.176;2022-10-16T00:32:34;6.78;;;3.83;;
17441;SDS011;8838;50.144;8.176;2022-10-16T00:35:01;5.20;;;3.50;;
17441;SDS011;8838;50.144;8.176;2022-10-16T00:37:28;7.07;;;4.40;;
17441;SDS011;8838;50.144;8.176;2022-10-16T00:39:55;16.80;;;6.53;;
17441;SDS011;8838;50.144;8.176;2022-10-16T00:42:22;7.47;;;4.40;;
17441;SDS011;8838;50.144;8.176;2022-10-16T00:44:52;5.53;;;2.70;;
17441;SDS011;8838;50.144;8.176;2022-10-16T00:47:22;8.30;;;2.85;;
17441;SDS011;8838;50.144;8.176;2022-10-16T00:49:54;7.55;;;2.83;;
17441;SDS011;8838;50.144;8.176;2022-10-16T00:52:24;5.13;;;2.97;;
17441;SDS011;8838;50.144;8.176;2022-10-16T00:54:51;6.38;;;2.60;;
17441;SDS011;8838;50.144;8.176;2022-10-16T00:57:19;4.55;;;2.22;;
17441;SDS011;8838;50.144;8.176;2022-10-16T00:59:46;5.32;;;2.35;;
17441;SDS011;8838;50.144;8.176;2022-10-16T01:02:15;2.22;;;2.00;;
17441;SDS011;8838;50.144;8.176;2022-10-16T01:04:43;3.08;;;1.95;;
17441;SDS011;8838;50.144;8.176;2022-10-16T01:07:12;4.68;;;1.98;;
17441;SDS011;8838;50.144;8.176;2022-10-16T01:09:51;2.88;;;1.88;;
17441;SDS011;8838;50.144;8.176;2022-10-16T01:12:30;3.67;;;1.25;;
17441;SDS011;8838;50.144;8.176;2022-10-16T01:15:06;5.45;;;1.50;;
17441;SDS011;8838;50.144;8.176;2022-10-16T01:17:41;2.65;;;1.70;;
17441;SDS011;8838;50.144;8.176;2022-10-16T01:20:14;5.82;;;1.52;;
17441;SDS011;8838;50.144;8.176;2022-10-16T01:22:56;3.80;;;1.60;;
17441;SDS011;8838;50.144;8.176;2022-10-16T01:25:36;2.85;;;1.50;;
17441;SDS011;8838;50.144;8.176;2022-10-16T01:28:16;3.90;;;1.60;;
17441;SDS011;8838;50.144;8.176;2022-10-16T01:30:47;3.33;;;1.60;;
17441;SDS011;8838;50.144;8.176;2022-10-16T01:33:18;2.22;;;1.52;;
17441;SDS011;8838;50.144;8.176;2022-10-16T01:35:51;2.25;;;1.40;;
17441;SDS011;8838;50.144;8.176;2022-10-16T01:38:21;2.78;;;1.33;;
17441;SDS011;8838;50.144;8.176;2022-10-16T01:40:54;3.08;;;1.48;;
17441;SDS011;8838;50.144;8.176;2022-10-16T01:43:29;4.72;;;1.58;;
17441;SDS011;8838;50.144;8.176;2022-10-16T01:45:59;2.05;;;1.52;;
17441;SDS011;8838;50.144;8.176;2022-10-16T01:48:27;2.22;;;1.50;;
17441;SDS011;8838;50.144;8.176;2022-10-16T01:50:57;1.73;;;1.23;;
17441;SDS011;8838;50.144;8.176;2022-10-16T01:53:27;7.25;;;1.80;;
17441;SDS011;8838;50.144;8.176;2022-10-16T01:55:54;2.53;;;1.30;;
17441;SDS011;8838;50.144;8.176;2022-10-16T01:58:24;6.18;;;1.98;;
17441;SDS011;8838;50.144;8.176;2022-10-16T02:00:57;4.32;;;1.70;;
17441;SDS011;8838;50.144;8.176;2022-10-16T02:03:24;7.32;;;2.20;;
17441;SDS011;8838;50.144;8.176;2022-10-16T02:05:51;5.18;;;1.80;;
17441;SDS011;8838;50.144;8.176;2022-10-16T02:08:20;3.80;;;1.80;;
17441;SDS011;8838;50.144;8.176;2022-10-16T02:10:50;3.28;;;2.05;;
17441;SDS011;8838;50.144;8.176;2022-10-16T02:13:19;8.95;;;2.58;;
17441;SDS011;8838;50.144;8.176;2022-10-16T02:15:49;6.78;;;2.20;;
17441;SDS011;8838;50.144;8.176;2022-10-16T02:18:18;3.30;;;2.33;;
17441;SDS011;8838;50.144;8.176;2022-10-16T02:20:47;8.10;;;2.60;;
17441;SDS011;8838;50.144;8.176;2022-10-16T02:23:19;2.80;;;2.60;;
17441;SDS011;8838;50.144;8.176;2022-10-16T02:25:50;3.65;;;2.22;;
17441;SDS011;8838;50.144;8.176;2022-10-16T02:28:22;3.58;;;2.00;;
17441;SDS011;8838;50.144;8.176;2022-10-16T02:30:53;3.63;;;2.25;;
17441;SDS011;8838;50.144;8.176;2022-10-16T02:33:26;6.63;;;2.35;;
17441;SDS011;8838;50.144;8.176;2022-10-16T02:35:55;2.35;;;2.00;;
17441;SDS011;8838;50.144;8.176;2022-10-16T02:38:22;4.10;;;1.80;;
17441;SDS011;8838;50.144;8.176;2022-10-16T02:40:50;5.88;;;2.05;;
17441;SDS011;8838;50.144;8.176;2022-10-16T02:43:17;6.07;;;2.28;;
17441;SDS011;8838;50.144;8.176;2022-10-16T02:45:45;2.92;;;1.90;;
17441;SDS011;8838;50.144;8.176;2022-10-16T02:48:12;8.23;;;2.28;;
17441;SDS011;8838;50.144;8.176;2022-10-16T02:50:41;5.22;;;1.85;;
17441;SDS011;8838;50.144;8.176;2022-10-16T02:53:07;4.57;;;1.50;;
17441;SDS011;8838;50.144;8.176;2022-10-16T02:55:34;3.42;;;1.50;;
17441;SDS011;8838;50.144;8.176;2022-10-16T02:58:01;2.05;;;1.40;;
17441;SDS011;8838;50.144;8.176;2022-10-16T03:00:28;4.25;;;1.40;;
17441;SDS011;8838;50.144;8.176;2022-10-16T03:02:55;1.50;;;1.10;;
17441;SDS011;8838;50.144;8.176;2022-10-16T03:05:21;4.50;;;1.30;;
17441;SDS011;8838;50.144;8.176;2022-10-16T03:07:50;4.85;;;1.23;;
17441;SDS011;8838;50.144;8.176;2022-10-16T03:10:17;6.43;;;1.15;;
17441;SDS011;8838;50.144;8.176;2022-10-16T03:12:44;6.25;;;1.33;;
17441;SDS011;8838;50.144;8.176;2022-10-16T03:15:11;3.25;;;1.42;;
17441;SDS011;8838;50.144;8.176;2022-10-16T03:17:38;3.63;;;1.17;;
17441;SDS011;8838;50.144;8.176;2022-10-16T03:20:05;3.35;;;1.50;;
17441;SDS011;8838;50.144;8.176;2022-10-16T03:22:32;5.57;;;1.20;;
17441;SDS011;8838;50.144;8.176;2022-10-16T03:25:01;2.40;;;1.10;;
17441;SDS011;8838;50.144;8.176;2022-10-16T03:27:28;4.55;;;1.40;;
17441;SDS011;8838;50.144;8.176;2022-10-16T03:29:54;7.57;;;1.30;;
17441;SDS011;8838;50.144;8.176;2022-10-16T03:32:21;4.80;;;1.60;;
17441;SDS011;8838;50.144;8.176;2022-10-16T03:34:49;1.92;;;1.50;;
17441;SDS011;8838;50.144;8.176;2022-10-16T03:37:18;7.57;;;1.77;;
17441;SDS011;8838;50.144;8.176;2022-10-16T03:39:44;5.15;;;1.63;;
17441;SDS011;8838;50.144;8.176;2022-10-16T03:42:12;9.98;;;1.80;;
17441;SDS011;8838;50.144;8.176;2022-10-16T03:44:39;7.07;;;1.80;;
17441;SDS011;8838;50.144;8.176;2022-10-16T03:47:06;4.75;;;1.80;;
17441;SDS011;8838;50.144;8.176;2022-10-16T03:49:33;4.50;;;2.00;;
17441;SDS011;8838;50.144;8.176;2022-10-16T03:51:59;5.55;;;1.60;;
17441;SDS011;8838;50.144;8.176;2022-10-16T03:54:26;1.58;;;1.30;;
17441;SDS011;8838;50.144;8.176;2022-10-16T03:56:53;3.67;;;1.50;;
17441;SDS011;8838;50.144;8.176;2022-10-16T03:59:21;4.72;;;2.00;;
17441;SDS011;8838;50.144;8.176;2022-10-16T04:01:48;2.95;;;1.60;;
17441;SDS011;8838;50.144;8.176;2022-10-16T04:04:15;3.03;;;1.80;;
17441;SDS011;8838;50.144;8.176;2022-10-16T04:06:41;6.80;;;1.80;;
17441;SDS011;8838;50.144;8.176;2022-10-16T04:09:08;2.78;;;2.00;;
17441;SDS011;8838;50.144;8.176;2022-10-16T04:11:35;2.75;;;2.00;;
17441;SDS011;8838;50.144;8.176;2022-10-16T04:14:02;3.42;;;2.00;;
17441;SDS011;8838;50.144;8.176;2022-10-16T04:16:30;8.98;;;2.15;;
17441;SDS011;8838;50.144;8.176;2022-10-16T04:18:57;2.78;;;2.05;;
17441;SDS011;8838;50.144;8.176;2022-10-16T04:21:23;2.00;;;1.70;;
17441;SDS011;8838;50.144;8.176;2022-10-16T04:23:50;7.13;;;1.70;;
17441;SDS011;8838;50.144;8.176;2022-10-16T04:26:17;3.78;;;1.67;;
17441;SDS011;8838;50.144;8.176;2022-10-16T04:28:44;4.07;;;1.63;;
17441;SDS011;8838;50.144;8.176;2022-10-16T04:31:11;5.03;;;2.28;;
17441;SDS011;8838;50.144;8.176;2022-10-16T04:33:40;1.90;;;1.80;;
17441;SDS011;8838;50.144;8.176;2022-10-16T04:36:08;5.50;;;2.20;;
17441;SDS011;8838;50.144;8.176;2022-10-16T04:38:35;3.00;;;2.20;;
17441;SDS011;8838;50.144;8.176;2022-10-16T04:41:02;5.70;;;2.08;;
17441;SDS011;8838;50.144;8.176;2022-10-16T04:43:29;2.50;;;2.30;;
17441;SDS011;8838;50.144;8.176;2022-10-16T04:45:56;4.03;;;1.90;;
17441;SDS011;8838;50.144;8.176;2022-10-16T04:48:23;1.98;;;1.80;;
17441;SDS011;8838;50.144;8.176;2022-10-16T04:50:51;4.85;;;1.90;;
17441;SDS011;8838;50.144;8.176;2022-10-16T04:53:17;5.18;;;1.98;;
17441;SDS011;8838;50.144;8.176;2022-10-16T04:55:44;5.28;;;1.90;;
17441;SDS011;8838;50.144;8.176;2022-10-16T04:58:11;3.42;;;2.17;;
17441;SDS011;8838;50.144;8.176;2022-10-16T05:00:38;4.53;;;2.22;;
17441;SDS011;8838;50.144;8.176;2022-10-16T05:03:05;5.38;;;2.30;;
17441;SDS011;8838;50.144;8.176;2022-10-16T05:05:33;2.55;;;2.33;;
17441;SDS011;8838;50.144;8.176;2022-10-16T05:08:01;3.13;;;2.65;;
17441;SDS011;8838;50.144;8.176;2022-10-16T05:10:29;5.20;;;2.85;;
17441;SDS011;8838;50.144;8.176;2022-10-16T05:12:55;3.25;;;2.88;;
17441;SDS011;8838;50.144;8.176;2022-10-16T05:15:22;5.30;;;2.88;;
17441;SDS011;8838;50.144;8.176;2022-10-16T05:17:51;4.10;;;2.65;;
17441;SDS011;8838;50.144;8.176;2022-10-16T05:20:19;5.72;;;3.63;;
17441;SDS011;8838;50.144;8.176;2022-10-16T05:22:46;4.13;;;3.38;;
17441;SDS011;8838;50.144;8.176;2022-10-16T05:25:14;6.13;;;3.83;;
17441;SDS011;8838;50.144;8.176;2022-10-16T05:27:41;6.00;;;3.78;;
17441;SDS011;8838;50.144;8.176;2022-10-16T05:30:08;4.22;;;3.72;;
17441;SDS011;8838;50.144;8.176;2022-10-16T05:32:35;4.47;;;3.90;;
17441;SDS011;8838;50.144;8.176;2022-10-16T05:35:02;7.30;;;4.10;;
17441;SDS011;8838;50.144;8.176;2022-10-16T05:37:30;6.40;;;3.78;;
17441;SDS011;8838;50.144;8.176;2022-10-16T05:39:57;4.97;;;4.05;;
17441;SDS011;8838;50.144;8.176;2022-10-16T05:42:25;5.30;;;3.90;;
17441;SDS011;8838;50.144;8.176;2022-10-16T05:44:52;5.43;;;3.67;;
17441;SDS011;8838;50.144;8.176;2022-10-16T05:47:19;3.90;;;3.60;;
17441;SDS011;8838;50.144;8.176;2022-10-16T05:49:49;5.40;;;3.80;;
17441;SDS011;8838;50.144;8.176;2022-10-16T05:52:16;5.32;;;3.80;;
17441;SDS011;8838;50.144;8.176;2022-10-16T05:54:43;6.55;;;3.88;;
17441;SDS011;8838;50.144;8.176;2022-10-16T05:57:09;11.35;;;4.38;;
17441;SDS011;8838;50.144;8.176;2022-10-16T05:59:37;6.78;;;3.65;;
17441;SDS011;8838;50.144;8.176;2022-10-16T06:02:04;6.95;;;4.40;;
17441;SDS011;8838;50.144;8.176;2022-10-16T06:04:31;5.18;;;4.25;;
17441;SDS011;8838;50.144;8.176;2022-10-16T06:06:58;6.25;;;4.07;;
17441;SDS011;8838;50.144;8.176;2022-10-16T06:09:26;5.05;;;4.20;;
17441;SDS011;8838;50.144;8.176;2022-10-16T06:11:53;6.82;;;5.10;;
17441;SDS011;8838;50.144;8.176;2022-10-16T06:14:20;9.48;;;4.88;;
17441;SDS011;8838;50.144;8.176;2022-10-16T06:16:48;7.95;;;5.00;;
17441;SDS011;8838;50.144;8.176;2022-10-16T06:19:14;6.38;;;4.53;;
17441;SDS011;8838;50.144;8.176;2022-10-16T06:21:42;6.25;;;4.30;;
17441;SDS011;8838;50.144;8.176;2022-10-16T06:24:09;9.20;;;5.40;;
17441;SDS011;8838;50.144;8.176;2022-10-16T06:26:36;10.73;;;5.25;;
17441;SDS011;8838;50.144;8.176;2022-10-16T06:29:04;7.13;;;5.43;;
17441;SDS011;8838;50.144;8.176;2022-10-16T06:31:33;7.15;;;5.28;;
17441;SDS011;8838;50.144;8.176;2022-10-16T06:34:01;6.82;;;5.28;;
17441;SDS011;8838;50.144;8.176;2022-10-16T06:36:29;7.68;;;5.10;;
17441;SDS011;8838;50.144;8.176;2022-10-16T06:38:58;5.70;;;5.10;;
17441;SDS011;8838;50.144;8.176;2022-10-16T06:41:25;9.02;;;4.93;;
17441;SDS011;8838;50.144;8.176;2022-10-16T06:43:52;6.97;;;4.97;;
17441;SDS011;8838;50.144;8.176;2022-10-16T06:46:19;6.78;;;5.32;;
17441;SDS011;8838;50.144;8.176;2022-10-16T06:48:47;6.47;;;5.38;;
17441;SDS011;8838;50.144;8.176;2022-10-16T06:51:16;7.57;;;5.47;;
17441;SDS011;8838;50.144;8.176;2022-10-16T06:53:44;6.35;;;5.43;;
17441;SDS011;8838;50.144;8.176;2022-10-16T06:56:14;10.27;;;5.50;;
17441;SDS011;8838;50.144;8.176;2022-10-16T06:58:42;6.95;;;5.55;;
17441;SDS011;8838;50.144;8.176;2022-10-16T07:01:10;7.30;;;5.60;;
17441;SDS011;8838;50.144;8.176;2022-10-16T07:03:38;8.45;;;5.85;;
17441;SDS011;8838;50.144;8.176;2022-10-16T07:06:07;7.72;;;5.25;;
17441;SDS011;8838;50.144;8.176;2022-10-16T07:08:36;6.60;;;5.45;;
17441;SDS011;8838;50.144;8.176;2022-10-16T07:11:05;7.50;;;4.90;;
17441;SDS011;8838;50.144;8.176;2022-10-16T07:13:33;7.13;;;4.90;;
17441;SDS011;8838;50.144;8.176;2022-10-16T07:16:03;8.10;;;5.10;;
17441;SDS011;8838;50.144;8.176;2022-10-16T07:18:31;9.38;;;4.88;;
17441;SDS011;8838;50.144;8.176;2022-10-16T07:21:02;5.43;;;4.80;;
17441;SDS011;8838;50.144;8.176;2022-10-16T07:23:30;7.13;;;4.82;;
17441;SDS011;8838;50.144;8.176;2022-10-16T07:25:58;7.93;;;5.60;;
17441;SDS011;8838;50.144;8.176;2022-10-16T07:28:25;8.48;;;4.90;;
17441;SDS011;8838;50.144;8.176;2022-10-16T07:30:52;11.05;;;4.90;;
17441;SDS011;8838;50.144;8.176;2022-10-16T07:33:19;4.75;;;4.25;;
17441;SDS011;8838;50.144;8.176;2022-10-16T07:35:50;6.13;;;4.40;;
17441;SDS011;8838;50.144;8.176;2022-10-16T07:38:17;6.50;;;4.20;;
17441;SDS011;8838;50.144;8.176;2022-10-16T07:40:44;7.03;;;4.40;;
17441;SDS011;8838;50.144;8.176;2022-10-16T07:43:13;7.10;;;4.57;;
17441;SDS011;8838;50.144;8.176;2022-10-16T07:45:47;4.13;;;3.72;;
17441;SDS011;8838;50.144;8.176;2022-10-16T07:48:15;9.10;;;4.40;;
17441;SDS011;8838;50.144;8.176;2022-10-16T07:50:42;5.57;;;3.42;;
17441;SDS011;8838;50.144;8.176;2022-10-16T07:53:09;6.30;;;3.63;;
17441;SDS011;8838;50.144;8.176;2022-10-16T07:55:37;3.67;;;3.28;;
17441;SDS011;8838;50.144;8.176;2022-10-16T07:58:05;4.90;;;3.45;;
17441;SDS011;8838;50.144;8.176;2022-10-16T08:00:33;4.25;;;3.40;;
17441;SDS011;8838;50.144;8.176;2022-10-16T08:03:01;10.13;;;5.07;;
17441;SDS011;8838;50.144;8.176;2022-10-16T08:05:28;7.85;;;4.80;;
17441;SDS011;8838;50.144;8.176;2022-10-16T08:07:57;9.75;;;5.25;;
17441;SDS011;8838;50.144;8.176;2022-10-16T08:10:24;8.70;;;4.82;;
17441;SDS011;8838;50.144;8.176;2022-10-16T08:12:53;5.22;;;4.03;;
17441;SDS011;8838;50.144;8.176;2022-10-16T08:15:20;8.60;;;4.75;;
17441;SDS011;8838;50.144;8.176;2022-10-16T08:17:55;46.28;;;22.20;;
17441;SDS011;8838;50.144;8.176;2022-10-16T08:20:22;12.25;;;6.85;;
17441;SDS011;8838;50.144;8.176;2022-10-16T08:22:49;22.15;;;11.45;;
17441;SDS011;8838;50.144;8.176;2022-10-16T08:25:16;9.75;;;6.20;;
17441;SDS011;8838;50.144;8.176;2022-10-16T08:27:43;15.05;;;8.88;;
17441;SDS011;8838;50.144;8.176;2022-10-16T08:30:10;10.38;;;6.47;;
17441;SDS011;8838;50.144;8.176;2022-10-16T08:32:38;7.60;;;5.00;;
17441;SDS011;8838;50.144;8.176;2022-10-16T08:35:08;5.57;;;4.65;;
17441;SDS011;8838;50.144;8.176;2022-10-16T08:37:35;5.72;;;5.03;;
17441;SDS011;8838;50.144;8.176;2022-10-16T08:40:03;6.18;;;4.80;;
17441;SDS011;8838;50.144;8.176;2022-10-16T08:42:34;7.50;;;5.22;;
17441;SDS011;8838;50.144;8.176;2022-10-16T08:45:25;6.43;;;5.57;;
17441;SDS011;8838;50.144;8.176;2022-10-16T08:48:03;8.60;;;5.38;;
17441;SDS011;8838;50.144;8.176;2022-10-16T08:50:42;7.72;;;6.35;;
17441;SDS011;8838;50.144;8.176;2022-10-16T08:53:10;10.05;;;6.13;;
17441;SDS011;8838;50.144;8.176;2022-10-16T08:55:45;10.50;;;5.35;;
17441;SDS011;8838;50.144;8.176;2022-10-16T08:58:15;5.53;;;4.50;;
17441;SDS011;8838;50.144;8.176;2022-10-16T09:00:44;8.13;;;6.22;;
17441;SDS011;8838;50.144;8.176;2022-10-16T09:03:17;5.07;;;4.45;;
17441;SDS011;8838;50.144;8.176;2022-10-16T09:05:57;7.72;;;4.82;;
17441;SDS011;8838;50.144;8.176;2022-10-16T09:08:34;6.28;;;4.70;;
17441;SDS011;8838;50.144;8.176;2022-10-16T09:11:13;6.22;;;4.95;;
17441;SDS011;8838;50.144;8.176;2022-10-16T09:13:48;5.88;;;4.05;;
17441;SDS011;8838;50.144;8.176;2022-10-16T09:16:19;8.05;;;4.40;;
17441;SDS011;8838;50.144;8.176;2022-10-16T09:18:51;6.72;;;5.07;;
17441;SDS011;8838;50.144;8.176;2022-10-16T09:21:23;7.55;;;5.07;;
17441;SDS011;8838;50.144;8.176;2022-10-16T09:23:53;6.38;;;4.13;;
17441;SDS011;8838;50.144;8.176;2022-10-16T09:26:23;5.40;;;4.13;;
17441;SDS011;8838;50.144;8.176;2022-10-16T09:28:51;6.30;;;3.72;;
17441;SDS011;8838;50.144;8.176;2022-10-16T09:31:20;4.72;;;3.65;;
17441;SDS011;8838;50.144;8.176;2022-10-16T09:33:50;4.53;;;3.40;;
17441;SDS011;8838;50.144;8.176;2022-10-16T09:36:20;5.40;;;3.90;;
17441;SDS011;8838;50.144;8.176;2022-10-16T09:38:49;6.97;;;4.85;;
17441;SDS011;8838;50.144;8.176;2022-10-16T09:41:19;7.38;;;6.30;;
17441;SDS011;8838;50.144;8.176;2022-10-16T09:43:52;5.63;;;3.92;;
17441;SDS011;8838;50.144;8.176;2022-10-16T09:46:25;7.18;;;5.45;;
17441;SDS011;8838;50.144;8.176;2022-10-16T09:48:54;9.60;;;8.25;;
17441;SDS011;8838;50.144;8.176;2022-10-16T09:51:25;7.57;;;5.55;;
17441;SDS011;8838;50.144;8.176;2022-10-16T09:53:55;6.88;;;4.95;;
17441;SDS011;8838;50.144;8.176;2022-10-16T09:56:24;6.10;;;3.80;;
17441;SDS011;8838;50.144;8.176;2022-10-16T09:58:53;7.50;;;5.53;;
17441;SDS011;8838;50.144;8.176;2022-10-16T10:01:22;5.53;;;4.93;;
17441;SDS011;8838;50.144;8.176;2022-10-16T10:03:55;5.60;;;4.75;;
17441;SDS011;8838;50.144;8.176;2022-10-16T10:06:28;4.38;;;3.65;;
17441;SDS011;8838;50.144;8.176;2022-10-16T10:08:58;6.63;;;3.60;;
17441;SDS011;8838;50.144;8.176;2022-10-16T10:11:36;6.28;;;3.42;;
17441;SDS011;8838;50.144;8.176;2022-10-16T10:14:04;4.60;;;3.10;;
17441;SDS011;8838;50.144;8.176;2022-10-16T10:16:32;4.90;;;2.85;;
17441;SDS011;8838;50.144;8.176;2022-10-16T10:18:59;3.28;;;2.97;;
17441;SDS011;8838;50.144;8.176;2022-10-16T10:21:27;4.53;;;2.90;;
17441;SDS011;8838;50.144;8.176;2022-10-16T10:23:55;3.42;;;2.60;;
17441;SDS011;8838;50.144;8.176;2022-10-16T10:26:23;3.10;;;2.80;;
17441;SDS011;8838;50.144;8.176;2022-10-16T10:28:55;2.63;;;2.42;;
17441;SDS011;8838;50.144;8.176;2022-10-16T10:31:29;5.07;;;2.75;;
17441;SDS011;8838;50.144;8.176;2022-10-16T10:34:17;3.78;;;2.67;;
17441;SDS011;8838;50.144;8.176;2022-10-16T10:36:55;4.15;;;2.47;;
17441;SDS011;8838;50.144;8.176;2022-10-16T10:39:30;3.70;;;2.63;;
17441;SDS011;8838;50.144;8.176;2022-10-16T10:45:00;3.38;;;2.83;;
17441;SDS011;8838;50.144;8.176;2022-10-16T10:47:44;2.83;;;2.60;;
17441;SDS011;8838;50.144;8.176;2022-10-16T10:50:20;3.13;;;2.33;;
17441;SDS011;8838;50.144;8.176;2022-10-16T10:52:57;3.72;;;2.30;;
17441;SDS011;8838;50.144;8.176;2022-10-16T10:55:36;2.50;;;2.30;;
17441;SDS011;8838;50.144;8.176;2022-10-16T10:58:21;2.97;;;2.58;;
17441;SDS011;8838;50.144;8.176;2022-10-16T11:01:11;4.55;;;2.35;;
17441;SDS011;8838;50.144;8.176;2022-10-16T11:03:46;5.72;;;2.55;;
17441;SDS011;8838;50.144;8.176;2022-10-16T11:06:34;5.07;;;1.98;;
17441;SDS011;8838;50.144;8.176;2022-10-16T11:09:10;2.50;;;1.90;;
17441;SDS011;8838;50.144;8.176;2022-10-16T11:11:40;5.35;;;1.95;;
17441;SDS011;8838;50.144;8.176;2022-10-16T11:14:14;3.67;;;1.95;;
17441;SDS011;8838;50.144;8.176;2022-10-16T11:16:46;5.82;;;2.47;;
17441;SDS011;8838;50.144;8.176;2022-10-16T11:19:20;4.50;;;2.10;;
17441;SDS011;8838;50.144;8.176;2022-10-16T11:21:55;7.28;;;2.92;;
17441;SDS011;8838;50.144;8.176;2022-10-16T11:24:31;4.50;;;2.20;;
17441;SDS011;8838;50.144;8.176;2022-10-16T11:27:04;3.88;;;2.40;;
17441;SDS011;8838;50.144;8.176;2022-10-16T11:29:34;4.03;;;2.83;;
17441;SDS011;8838;50.144;8.176;2022-10-16T11:32:06;5.15;;;4.05;;
17441;SDS011;8838;50.144;8.176;2022-10-16T11:34:47;8.93;;;5.05;;
17441;SDS011;8838;50.144;8.176;2022-10-16T11:37:19;6.72;;;4.97;;
17441;SDS011;8838;50.144;8.176;2022-10-16T11:39:58;6.88;;;4.60;;
17441;SDS011;8838;50.144;8.176;2022-10-16T11:42:41;8.68;;;5.05;;
17441;SDS011;8838;50.144;8.176;2022-10-16T11:45:17;7.70;;;5.10;;
17441;SDS011;8838;50.144;8.176;2022-10-16T11:47:54;9.43;;;5.13;;
17441;SDS011;8838;50.144;8.176;2022-10-16T11:50:28;8.60;;;4.57;;
17441;SDS011;8838;50.144;8.176;2022-10-16T11:53:04;9.35;;;4.72;;
17441;SDS011;8838;50.144;8.176;2022-10-16T11:55:42;5.13;;;4.03;;
17441;SDS011;8838;50.144;8.176;2022-10-16T11:58:13;6.40;;;3.67;;
17441;SDS011;8838;50.144;8.176;2022-10-16T12:00:51;3.28;;;2.90;;
17441;SDS011;8838;50.144;8.176;2022-10-16T12:03:26;5.53;;;2.80;;
17441;SDS011;8838;50.144;8.176;2022-10-16T12:06:11;5.20;;;2.60;;
17441;SDS011;8838;50.144;8.176;2022-10-16T12:08:48;3.88;;;2.25;;
17441;SDS011;8838;50.144;8.176;2022-10-16T12:11:24;4.18;;;2.30;;
17441;SDS011;8838;50.144;8.176;2022-10-16T12:14:06;3.13;;;2.40;;
17441;SDS011;8838;50.144;8.176;2022-10-16T12:16:54;4.25;;;2.20;;
17441;SDS011;8838;50.144;8.176;2022-10-16T12:19:24;4.75;;;3.08;;
17441;SDS011;8838;50.144;8.176;2022-10-16T12:21:55;3.85;;;2.67;;
17441;SDS011;8838;50.144;8.176;2022-10-16T12:24:30;4.75;;;2.80;;
17441;SDS011;8838;50.144;8.176;2022-10-16T12:27:03;3.85;;;2.47;;
17441;SDS011;8838;50.144;8.176;2022-10-16T12:29:34;2.85;;;2.20;;
17441;SDS011;8838;50.144;8.176;2022-10-16T12:32:03;2.95;;;2.30;;
17441;SDS011;8838;50.144;8.176;2022-10-16T12:34:35;4.60;;;2.30;;
17441;SDS011;8838;50.144;8.176;2022-10-16T12:37:13;3.03;;;2.05;;
17441;SDS011;8838;50.144;8.176;2022-10-16T12:39:46;4.28;;;2.30;;
17441;SDS011;8838;50.144;8.176;2022-10-16T12:42:31;3.28;;;2.03;;
17441;SDS011;8838;50.144;8.176;2022-10-16T12:44:59;4.20;;;1.98;;
17441;SDS011;8838;50.144;8.176;2022-10-16T12:47:37;3.65;;;1.95;;
17441;SDS011;8838;50.144;8.176;2022-10-16T12:50:25;1.70;;;1.60;;
17441;SDS011;8838;50.144;8.176;2022-10-16T12:52:54;2.72;;;2.00;;
17441;SDS011;8838;50.144;8.176;2022-10-16T12:55:21;6.82;;;2.00;;
17441;SDS011;8838;50.144;8.176;2022-10-16T12:57:57;2.90;;;2.00;;
17441;SDS011;8838;50.144;8.176;2022-10-16T13:00:32;5.25;;;1.88;;
17441;SDS011;8838;50.144;8.176;2022-10-16T13:03:24;2.72;;;2.10;;
17441;SDS011;8838;50.144;8.176;2022-10-16T13:06:14;6.47;;;2.05;;
17441;SDS011;8838;50.144;8.176;2022-10-16T13:11:51;4.60;;;1.83;;
17441;SDS011;8838;50.144;8.176;2022-10-16T13:14:43;2.83;;;1.65;;
17441;SDS011;8838;50.144;8.176;2022-10-16T13:17:26;2.40;;;1.83;;
17441;SDS011;8838;50.144;8.176;2022-10-16T13:20:03;1.95;;;1.75;;
17441;SDS011;8838;50.144;8.176;2022-10-16T13:22:45;2.72;;;1.65;;
17441;SDS011;8838;50.144;8.176;2022-10-16T13:25:19;4.68;;;1.73;;
17441;SDS011;8838;50.144;8.176;2022-10-16T13:27:54;5.15;;;1.77;;
17441;SDS011;8838;50.144;8.176;2022-10-16T13:30:24;3.47;;;1.70;;
17441;SDS011;8838;50.144;8.176;2022-10-16T13:32:54;4.32;;;1.80;;
17441;SDS011;8838;50.144;8.176;2022-10-16T13:35:25;4.03;;;1.70;;
17441;SDS011;8838;50.144;8.176;2022-10-16T13:38:03;3.03;;;1.98;;
17441;SDS011;8838;50.144;8.176;2022-10-16T13:40:48;3.13;;;1.80;;
17441;SDS011;8838;50.144;8.176;2022-10-16T13:43:16;3.10;;;1.90;;
17441;SDS011;8838;50.144;8.176;2022-10-16T13:45:53;4.68;;;1.80;;
17441;SDS011;8838;50.144;8.176;2022-10-16T13:48:21;5.10;;;1.98;;
17441;SDS011;8838;50.144;8.176;2022-10-16T13:50:58;2.45;;;2.00;;
17441;SDS011;8838;50.144;8.176;2022-10-16T13:53:26;2.00;;;1.73;;
17441;SDS011;8838;50.144;8.176;2022-10-16T13:55:54;5.05;;;2.10;;
17441;SDS011;8838;50.144;8.176;2022-10-16T13:58:20;7.30;;;1.90;;
17441;SDS011;8838;50.144;8.176;2022-10-16T14:00:56;2.75;;;1.60;;
17441;SDS011;8838;50.144;8.176;2022-10-16T14:03:24;2.30;;;1.60;;
17441;SDS011;8838;50.144;8.176;2022-10-16T14:05:53;1.60;;;1.50;;
17441;SDS011;8838;50.144;8.176;2022-10-16T14:08:23;4.30;;;2.05;;
17441;SDS011;8838;50.144;8.176;2022-10-16T14:10:52;6.38;;;1.92;;
17441;SDS011;8838;50.144;8.176;2022-10-16T14:13:23;4.18;;;1.73;;
17441;SDS011;8838;50.144;8.176;2022-10-16T14:15:57;5.15;;;1.60;;
17441;SDS011;8838;50.144;8.176;2022-10-16T14:18:28;4.45;;;1.90;;
17441;SDS011;8838;50.144;8.176;2022-10-16T14:21:01;4.00;;;2.13;;
17441;SDS011;8838;50.144;8.176;2022-10-16T14:23:30;5.03;;;1.60;;
17441;SDS011;8838;50.144;8.176;2022-10-16T14:28:43;1.77;;;1.60;;
17441;SDS011;8838;50.144;8.176;2022-10-16T14:33:58;3.03;;;1.73;;
17441;SDS011;8838;50.144;8.176;2022-10-16T14:36:26;5.25;;;1.83;;
17441;SDS011;8838;50.144;8.176;2022-10-16T14:38:57;6.25;;;1.80;;
17441;SDS011;8838;50.144;8.176;2022-10-16T14:41:27;2.55;;;1.80;;
17441;SDS011;8838;50.144;8.176;2022-10-16T14:44:00;4.88;;;1.58;;
17441;SDS011;8838;50.144;8.176;2022-10-16T14:46:31;4.65;;;1.80;;
17441;SDS011;8838;50.144;8.176;2022-10-16T14:49:02;3.17;;;2.05;;
17441;SDS011;8838;50.144;8.176;2022-10-16T14:51:37;3.53;;;1.63;;
17441;SDS011;8838;50.144;8.176;2022-10-16T14:54:07;6.13;;;1.75;;
17441;SDS011;8838;50.144;8.176;2022-10-16T14:56:35;5.85;;;1.60;;
17441;SDS011;8838;50.144;8.176;2022-10-16T14:59:11;3.72;;;1.92;;
17441;SDS011;8838;50.144;8.176;2022-10-16T15:01:43;4.53;;;2.35;;
17441;SDS011;8838;50.144;8.176;2022-10-16T15:04:12;3.95;;;1.90;;
17441;SDS011;8838;50.144;8.176;2022-10-16T15:06:39;6.70;;;2.22;;
17441;SDS011;8838;50.144;8.176;2022-10-16T15:09:06;4.32;;;2.10;;
17441;SDS011;8838;50.144;8.176;2022-10-16T15:11:34;9.40;;;2.70;;
17441;SDS011;8838;50.144;8.176;2022-10-16T15:14:13;4.13;;;2.40;;
17441;SDS011;8838;50.144;8.176;2022-10-16T15:16:44;5.93;;;2.10;;
17441;SDS011;8838;50.144;8.176;2022-10-16T15:19:17;3.97;;;2.13;;
17441;SDS011;8838;50.144;8.176;2022-10-16T15:21:45;3.25;;;1.98;;
17441;SDS011;8838;50.144;8.176;2022-10-16T15:24:13;4.35;;;2.40;;
17441;SDS011;8838;50.144;8.176;2022-10-16T15:26:40;5.93;;;2.22;;
17441;SDS011;8838;50.144;8.176;2022-10-16T15:29:08;9.25;;;2.58;;
17441;SDS011;8838;50.144;8.176;2022-10-16T15:31:35;6.70;;;2.53;;